Time;durP1;ratioP1;P1;durP2;ratioP2;P2;SDS_P1;SDS_P2;PMS_P1;PMS_P2;Temp;Humidity;BMP_temperature;BMP_pressure;BME280_temperature;BME280_humidity;BME280_pressure;Samples;Min_cycle;Max_cycle;Signal;HPM_P1;HPM_P2
2023/10/27 00:00:38;;;;;;;3.55;0.68;;;11.00;99.90;;;;;;5030105;28;20485;-71
2023/10/27 00:03:04;;;;;;;3.10;0.93;;;11.00;99.90;;;;;;5048830;28;20522;-71
2023/10/27 00:05:31;;;;;;;8.25;2.20;;;11.00;99.90;;;;;;5049295;28;20036;-71
2023/10/27 00:07:58;;;;;;;7.38;3.10;;;11.00;99.90;;;;;;5028320;28;20055;-70
2023/10/27 00:10:25;;;;;;;33.72;1.92;;;11.00;99.90;;;;;;5049074;28;20040;-70
2023/10/27 00:12:53;;;;;;;1.38;0.77;;;11.00;99.90;;;;;;5049379;28;20429;-70
2023/10/27 00:15:19;;;;;;;6.55;1.67;;;11.00;99.90;;;;;;5048118;28;20164;-71
2023/10/27 00:17:44;;;;;;;6.57;0.93;;;11.00;99.90;;;;;;5048537;28;20021;-70
2023/10/27 00:20:11;;;;;;;4.70;1.05;;;11.00;99.90;;;;;;5031527;28;20481;-70
2023/10/27 00:22:37;;;;;;;1.35;0.77;;;11.00;99.90;;;;;;5051165;28;20490;-70
2023/10/27 00:25:03;;;;;;;0.60;0.60;;;11.00;99.90;;;;;;5066177;28;20147;-70
2023/10/27 00:27:29;;;;;;;5.15;1.75;;;11.00;99.90;;;;;;5049121;28;20035;-70
2023/10/27 00:29:54;;;;;;;2.80;1.58;;;11.00;99.90;;;;;;5051475;28;20025;-70
2023/10/27 00:32:20;;;;;;;7.43;1.13;;;11.00;99.90;;;;;;5050306;28;20040;-71
2023/10/27 00:34:46;;;;;;;8.32;1.55;;;11.00;99.90;;;;;;5032197;28;20497;-71
2023/10/27 00:37:12;;;;;;;2.72;1.58;;;11.10;99.90;;;;;;5049442;28;20051;-71
2023/10/27 00:39:41;;;;;;;8.80;1.88;;;11.10;99.90;;;;;;5051563;28;20025;-70
2023/10/27 00:42:07;;;;;;;5.50;2.50;;;11.10;99.90;;;;;;5049584;28;20526;-70
2023/10/27 00:44:32;;;;;;;2.88;0.98;;;11.10;99.90;;;;;;5050021;28;20029;-70
2023/10/27 00:46:58;;;;;;;11.13;2.60;;;11.10;99.90;;;;;;5048889;28;20091;-70
2023/10/27 00:49:25;;;;;;;6.25;0.98;;;11.10;99.90;;;;;;5048342;28;20029;-70
2023/10/27 00:51:53;;;;;;;2.00;0.90;;;11.10;99.90;;;;;;5057151;28;20020;-70
2023/10/27 00:54:20;;;;;;;6.55;2.67;;;11.10;99.90;;;;;;5049826;28;20071;-70
2023/10/27 00:56:47;;;;;;;5.10;1.52;;;11.10;99.90;;;;;;5047023;28;20033;-70
2023/10/27 00:59:14;;;;;;;2.72;0.80;;;11.10;99.90;;;;;;5049948;28;20032;-70
2023/10/27 01:01:42;;;;;;;2.70;1.25;;;11.10;99.90;;;;;;5040554;28;20490;-70
2023/10/27 01:04:08;;;;;;;3.30;1.25;;;11.10;99.90;;;;;;5030699;28;20025;-70
2023/10/27 01:06:34;;;;;;;7.60;2.58;;;11.10;99.90;;;;;;5048234;28;20394;-70
2023/10/27 01:09:01;;;;;;;1.80;0.82;;;11.10;99.90;;;;;;5047067;28;20025;-70
2023/10/27 01:11:26;;;;;;;10.13;2.28;;;11.20;99.90;;;;;;5048528;28;20074;-70
2023/10/27 01:13:54;;;;;;;6.57;2.25;;;11.10;99.90;;;;;;5050690;28;20016;-69
2023/10/27 01:16:21;;;;;;;0.95;0.90;;;11.20;99.90;;;;;;5032177;28;20025;-70
2023/10/27 01:18:46;;;;;;;4.18;2.15;;;11.20;99.90;;;;;;5050288;28;20037;-70
2023/10/27 01:21:12;;;;;;;1.50;0.98;;;11.20;99.90;;;;;;5050348;28;20489;-70
2023/10/27 01:23:38;;;;;;;4.50;1.45;;;11.20;99.90;;;;;;5051909;28;20033;-70
2023/10/27 01:26:04;;;;;;;8.52;1.60;;;11.20;99.90;;;;;;5051140;28;20025;-69
2023/10/27 01:28:31;;;;;;;2.38;1.58;;;11.30;99.90;;;;;;5064360;28;20029;-69
2023/10/27 01:30:57;;;;;;;3.63;1.70;;;11.20;99.90;;;;;;5081510;28;20029;-68
2023/10/27 01:33:26;;;;;;;6.47;2.85;;;11.20;99.90;;;;;;5034375;28;20041;-69
2023/10/27 01:35:52;;;;;;;4.07;1.80;;;11.20;99.90;;;;;;5048547;28;20043;-70
2023/10/27 01:38:18;;;;;;;5.32;2.30;;;11.20;99.90;;;;;;5049026;28;20033;-70
2023/10/27 01:40:43;;;;;;;4.88;1.75;;;11.20;99.90;;;;;;5048306;28;20107;-70
2023/10/27 01:43:09;;;;;;;10.13;1.83;;;11.20;99.90;;;;;;5050711;28;20037;-69
2023/10/27 01:45:35;;;;;;;5.72;1.33;;;11.20;99.90;;;;;;5048662;28;20037;-69
2023/10/27 01:48:01;;;;;;;9.02;1.88;;;11.20;99.90;;;;;;5050874;28;20488;-69
2023/10/27 01:50:27;;;;;;;7.38;2.05;;;11.20;99.90;;;;;;5040843;28;20055;-69
2023/10/27 01:52:52;;;;;;;3.88;2.08;;;11.20;99.90;;;;;;5047906;28;20377;-70
2023/10/27 01:55:18;;;;;;;8.45;3.08;;;11.20;99.90;;;;;;5049033;28;20376;-70
2023/10/27 01:57:44;;;;;;;3.30;1.33;;;11.20;99.90;;;;;;5048915;28;20029;-70
2023/10/27 02:00:11;;;;;;;3.78;1.35;;;11.30;99.90;;;;;;5046229;28;20091;-70
2023/10/27 02:02:38;;;;;;;6.13;2.33;;;11.30;99.90;;;;;;5044440;28;20037;-70
2023/10/27 02:05:04;;;;;;;7.80;2.83;;;11.40;99.90;;;;;;5045592;28;20029;-70
2023/10/27 02:07:30;;;;;;;6.78;2.53;;;11.40;99.90;;;;;;5048037;28;20100;-70
2023/10/27 02:09:59;;;;;;;5.07;1.33;;;11.40;99.90;;;;;;5050056;28;20124;-70
2023/10/27 02:12:28;;;;;;;9.02;3.15;;;11.40;99.90;;;;;;5048385;28;20033;-70
2023/10/27 02:14:54;;;;;;;7.55;1.83;;;11.40;99.90;;;;;;5050796;28;20468;-71
2023/10/27 02:17:20;;;;;;;1.27;0.90;;;11.40;99.90;;;;;;5051786;28;20033;-70
2023/10/27 02:19:47;;;;;;;2.33;1.63;;;11.50;99.90;;;;;;5035944;28;20101;-71
2023/10/27 02:22:14;;;;;;;3.08;1.08;;;11.50;99.90;;;;;;5035502;28;20123;-70
2023/10/27 02:24:40;;;;;;;11.88;5.00;;;11.50;99.90;;;;;;5051952;28;20025;-71
2023/10/27 02:27:06;;;;;;;7.68;1.50;;;11.60;99.90;;;;;;5033186;28;20025;-70
2023/10/27 02:29:32;;;;;;;3.10;1.42;;;11.60;99.90;;;;;;5053478;28;20048;-70
2023/10/27 02:31:58;;;;;;;3.38;1.80;;;11.60;99.90;;;;;;5052593;28;21378;-70
2023/10/27 02:34:24;;;;;;;6.00;1.92;;;11.60;99.90;;;;;;5053069;28;20025;-70
2023/10/27 02:36:50;;;;;;;4.25;1.50;;;11.60;99.90;;;;;;5049620;28;20390;-70
2023/10/27 02:39:16;;;;;;;9.25;1.65;;;11.60;99.90;;;;;;5050879;28;20033;-70
2023/10/27 02:41:42;;;;;;;5.10;1.50;;;11.60;99.90;;;;;;5051545;28;20029;-70
2023/10/27 02:44:11;;;;;;;5.60;2.00;;;11.60;99.90;;;;;;5053029;28;20040;-70
2023/10/27 02:46:37;;;;;;;1.13;0.90;;;11.60;99.90;;;;;;5051456;28;20021;-72
2023/10/27 02:49:03;;;;;;;4.13;1.20;;;11.60;99.90;;;;;;5052072;28;20029;-70
2023/10/27 02:51:29;;;;;;;6.43;1.35;;;11.70;99.90;;;;;;5060944;28;20013;-70
2023/10/27 02:53:55;;;;;;;3.60;1.35;;;11.60;99.90;;;;;;5052030;28;20036;-70
2023/10/27 02:56:22;;;;;;;8.38;1.88;;;11.60;99.90;;;;;;5058620;28;20037;-70
2023/10/27 02:58:49;;;;;;;4.35;1.20;;;11.50;99.90;;;;;;5033205;28;20033;-70
2023/10/27 03:01:15;;;;;;;4.97;0.77;;;11.60;99.90;;;;;;5051332;28;20037;-70
2023/10/27 03:03:44;;;;;;;3.13;1.85;;;11.50;99.90;;;;;;5051425;28;20078;-70
2023/10/27 03:06:12;;;;;;;7.30;1.30;;;11.50;99.90;;;;;;5051170;28;20444;-70
2023/10/27 03:08:39;;;;;;;4.28;0.95;;;11.50;99.90;;;;;;5051037;28;20516;-70
2023/10/27 03:11:06;;;;;;;4.03;1.10;;;11.50;99.90;;;;;;5048948;28;20124;-70
2023/10/27 03:13:32;;;;;;;1.33;0.93;;;11.40;99.90;;;;;;5053237;28;20099;-70
2023/10/27 03:16:03;;;;;;;0.55;0.47;;;11.40;99.90;;;;;;5051694;28;20033;-69
2023/10/27 03:18:28;;;;;;;2.35;1.65;;;11.40;99.90;;;;;;5051939;28;20021;-71
2023/10/27 03:20:56;;;;;;;3.88;1.95;;;11.40;99.90;;;;;;5034907;28;20396;-71
2023/10/27 03:23:23;;;;;;;1.58;0.95;;;11.30;99.90;;;;;;5048022;28;20079;-70
2023/10/27 03:25:49;;;;;;;2.90;1.00;;;11.30;99.90;;;;;;5052883;28;20021;-70
2023/10/27 03:28:15;;;;;;;1.17;0.82;;;11.30;99.90;;;;;;5049619;28;20499;-70
2023/10/27 03:30:42;;;;;;;3.20;1.35;;;11.30;99.90;;;;;;5035137;28;20284;-70
2023/10/27 03:33:08;;;;;;;1.63;0.75;;;11.20;99.90;;;;;;5031843;28;20029;-70
2023/10/27 03:35:37;;;;;;;0.98;0.52;;;11.20;99.90;;;;;;5050135;28;20036;-70
2023/10/27 03:38:02;;;;;;;1.75;0.63;;;11.20;99.90;;;;;;5051213;28;20024;-69
2023/10/27 03:40:28;;;;;;;0.73;0.60;;;11.20;99.90;;;;;;5049654;28;20025;-69
2023/10/27 03:42:54;;;;;;;0.85;0.77;;;11.20;99.90;;;;;;5049954;28;20029;-70
2023/10/27 03:45:20;;;;;;;3.40;0.65;;;11.20;99.90;;;;;;5052499;28;20029;-69
2023/10/27 03:47:45;;;;;;;1.17;0.90;;;11.20;99.90;;;;;;5051718;28;20025;-70
2023/10/27 03:50:11;;;;;;;6.57;1.55;;;11.20;99.90;;;;;;5030563;28;20049;-70
2023/10/27 03:52:39;;;;;;;3.05;1.33;;;11.10;99.90;;;;;;5052302;28;20025;-70
2023/10/27 03:55:07;;;;;;;11.77;1.35;;;11.20;99.90;;;;;;5050482;28;20056;-69
2023/10/27 03:57:36;;;;;;;1.17;0.90;;;11.10;99.90;;;;;;5051854;28;20037;-70
2023/10/27 04:00:04;;;;;;;2.97;0.85;;;11.10;99.90;;;;;;5050565;28;21447;-70
2023/10/27 04:02:31;;;;;;;0.82;0.82;;;11.10;99.90;;;;;;5050953;28;20029;-70
2023/10/27 04:04:56;;;;;;;4.57;0.73;;;11.10;99.90;;;;;;5048879;28;20038;-69
2023/10/27 04:07:22;;;;;;;1.27;0.65;;;11.10;99.90;;;;;;5050382;28;20036;-69
2023/10/27 04:09:48;;;;;;;7.47;0.98;;;11.10;99.90;;;;;;5051111;28;20115;-69
2023/10/27 04:12:14;;;;;;;2.50;0.73;;;11.00;99.90;;;;;;5052474;28;20104;-69
2023/10/27 04:14:40;;;;;;;4.65;1.58;;;11.00;99.90;;;;;;5050760;28;20058;-70
2023/10/27 04:17:05;;;;;;;6.65;2.30;;;11.00;99.90;;;;;;5050440;28;20024;-70
2023/10/27 04:19:31;;;;;;;4.15;2.38;;;11.00;99.90;;;;;;5049931;28;20503;-70
2023/10/27 04:21:57;;;;;;;6.18;1.55;;;10.90;99.90;;;;;;5050939;28;20040;-70
2023/10/27 04:24:23;;;;;;;7.60;1.35;;;10.90;99.90;;;;;;5050807;28;20033;-70
2023/10/27 04:26:49;;;;;;;1.27;0.90;;;11.00;99.90;;;;;;5033747;28;20549;-70
2023/10/27 04:29:15;;;;;;;1.77;0.70;;;11.00;99.90;;;;;;5050759;28;20068;-70
2023/10/27 04:31:41;;;;;;;1.67;0.93;;;11.00;99.90;;;;;;5051517;28;20021;-70
2023/10/27 04:34:07;;;;;;;1.02;0.88;;;11.00;99.90;;;;;;5051103;28;20033;-70
2023/10/27 04:36:32;;;;;;;0.85;0.65;;;11.00;99.90;;;;;;5051091;28;20029;-70
2023/10/27 04:38:58;;;;;;;0.80;0.60;;;11.00;99.90;;;;;;5050435;28;20025;-70
2023/10/27 04:41:24;;;;;;;5.25;1.60;;;11.00;99.90;;;;;;5050879;28;20439;-70
2023/10/27 04:43:49;;;;;;;2.42;1.08;;;11.00;99.90;;;;;;5053950;28;20024;-70
2023/10/27 04:46:15;;;;;;;5.50;1.45;;;11.00;99.90;;;;;;5049922;28;20401;-70
2023/10/27 04:48:41;;;;;;;3.13;1.80;;;10.90;99.90;;;;;;5048708;28;20025;-76
2023/10/27 04:51:07;;;;;;;1.30;1.20;;;11.00;99.90;;;;;;5048137;28;20021;-73
2023/10/27 04:53:32;;;;;;;1.65;1.17;;;11.00;99.90;;;;;;5067988;28;20016;-72
2023/10/27 04:55:58;;;;;;;4.28;1.20;;;10.90;99.90;;;;;;5049840;28;20031;-73
2023/10/27 04:58:24;;;;;;;8.70;2.58;;;10.90;99.90;;;;;;5044176;28;20481;-72
2023/10/27 05:00:50;;;;;;;11.35;2.40;;;11.00;99.90;;;;;;5053167;28;20030;-73
2023/10/27 05:03:17;;;;;;;3.45;2.10;;;11.00;99.90;;;;;;5040083;28;20144;-72
2023/10/27 05:05:42;;;;;;;2.50;1.52;;;11.00;99.90;;;;;;5041317;28;20129;-73
2023/10/27 05:08:08;;;;;;;8.43;2.20;;;11.00;99.90;;;;;;5058088;28;20052;-72
2023/10/27 05:10:34;;;;;;;1.85;1.08;;;11.00;99.90;;;;;;5056251;28;20064;-73
2023/10/27 05:13:00;;;;;;;3.78;1.83;;;10.90;99.90;;;;;;5051564;28;20051;-73
2023/10/27 05:15:26;;;;;;;2.03;1.35;;;11.00;99.90;;;;;;5057298;28;20029;-72
2023/10/27 05:17:52;;;;;;;9.13;2.45;;;11.00;99.90;;;;;;5047049;28;20026;-72
2023/10/27 05:20:18;;;;;;;1.40;0.98;;;11.00;99.90;;;;;;5047958;28;20476;-72
2023/10/27 05:22:44;;;;;;;2.88;1.38;;;10.90;99.90;;;;;;5052242;28;20033;-72
2023/10/27 05:25:10;;;;;;;2.05;1.05;;;11.00;99.90;;;;;;5040071;28;20489;-72
2023/10/27 05:27:36;;;;;;;1.15;0.88;;;11.00;99.90;;;;;;5036364;28;20033;-72
2023/10/27 05:30:02;;;;;;;21.13;1.52;;;11.00;99.90;;;;;;5049372;28;20528;-72
2023/10/27 05:32:29;;;;;;;6.72;1.92;;;10.90;99.90;;;;;;5048776;28;20203;-72
2023/10/27 05:34:56;;;;;;;2.45;1.65;;;10.90;99.90;;;;;;5042587;28;20025;-71
2023/10/27 05:37:21;;;;;;;2.15;1.48;;;10.90;99.90;;;;;;5057404;28;20033;-71
2023/10/27 05:39:48;;;;;;;2.55;2.08;;;10.90;99.90;;;;;;5049354;28;20037;-73
2023/10/27 05:42:14;;;;;;;2.15;1.10;;;10.90;99.90;;;;;;5051207;28;20056;-72
2023/10/27 05:44:41;;;;;;;5.65;1.92;;;10.90;99.90;;;;;;5060290;28;20032;-71
2023/10/27 05:47:07;;;;;;;5.00;2.20;;;10.80;99.90;;;;;;5041669;28;20397;-72
2023/10/27 05:49:33;;;;;;;3.50;1.63;;;10.80;99.90;;;;;;5057897;28;20075;-69
2023/10/27 05:52:02;;;;;;;2.67;1.45;;;10.80;99.90;;;;;;5054647;28;20021;-71
2023/10/27 05:54:29;;;;;;;2.10;1.08;;;10.90;99.90;;;;;;5059551;28;20037;-69
2023/10/27 05:56:55;;;;;;;2.63;2.03;;;10.80;99.90;;;;;;5051893;28;20074;-71
2023/10/27 05:59:21;;;;;;;2.90;1.75;;;10.80;99.90;;;;;;5061350;28;20055;-68
2023/10/27 06:01:48;;;;;;;6.35;1.63;;;10.80;99.90;;;;;;5054712;28;20096;-70
2023/10/27 06:04:15;;;;;;;2.70;1.55;;;10.80;99.90;;;;;;5046328;28;20041;-69
2023/10/27 06:06:41;;;;;;;4.00;2.00;;;10.80;99.90;;;;;;5061872;28;20052;-69
2023/10/27 06:09:06;;;;;;;2.45;1.65;;;10.80;99.90;;;;;;5062334;28;20096;-69
2023/10/27 06:11:32;;;;;;;2.78;1.75;;;10.80;99.90;;;;;;5051315;28;20029;-70
2023/10/27 06:13:58;;;;;;;3.20;1.90;;;10.70;99.90;;;;;;5044367;28;20497;-71
2023/10/27 06:16:24;;;;;;;3.80;1.58;;;10.70;99.90;;;;;;5052074;28;20049;-74
2023/10/27 06:18:53;;;;;;;1.67;1.15;;;10.70;99.90;;;;;;5053047;28;20065;-71
2023/10/27 06:21:19;;;;;;;2.10;1.45;;;10.70;99.90;;;;;;5048544;28;20072;-71
2023/10/27 06:23:45;;;;;;;3.10;1.77;;;10.70;99.90;;;;;;5059274;28;20024;-63
2023/10/27 06:26:11;;;;;;;3.13;1.83;;;10.70;99.90;;;;;;5070977;28;20043;-62
2023/10/27 06:28:36;;;;;;;2.45;1.30;;;10.70;99.90;;;;;;5073619;28;20480;-65
2023/10/27 06:31:03;;;;;;;2.10;1.05;;;10.70;99.90;;;;;;5087137;28;20029;-72
2023/10/27 06:33:32;;;;;;;1.67;1.23;;;10.70;99.90;;;;;;5072727;28;20024;-74
2023/10/27 06:35:59;;;;;;;2.75;1.25;;;10.70;99.90;;;;;;5070941;28;20024;-75
2023/10/27 06:38:26;;;;;;;1.38;0.82;;;10.70;99.90;;;;;;5054688;28;20073;-74
2023/10/27 06:40:52;;;;;;;6.88;1.67;;;10.70;99.90;;;;;;5052887;28;20032;-74
2023/10/27 06:43:18;;;;;;;2.00;1.35;;;10.80;99.90;;;;;;5062362;28;20127;-74
2023/10/27 06:45:44;;;;;;;0.82;0.75;;;10.80;99.90;;;;;;5063550;28;20030;-73
2023/10/27 06:48:10;;;;;;;5.20;1.50;;;10.80;99.90;;;;;;5056601;28;20369;-75
2023/10/27 06:50:36;;;;;;;1.88;0.85;;;10.80;99.90;;;;;;5054946;28;20789;-76
2023/10/27 06:53:02;;;;;;;3.60;1.17;;;10.80;99.90;;;;;;5073865;28;20024;-75
2023/10/27 06:55:28;;;;;;;2.10;1.00;;;10.80;99.90;;;;;;5037456;28;20045;-75
2023/10/27 06:57:54;;;;;;;1.35;0.98;;;10.90;99.90;;;;;;5063661;28;20032;-75
2023/10/27 07:00:19;;;;;;;2.17;1.33;;;10.90;99.90;;;;;;5070336;28;20028;-75
2023/10/27 07:02:45;;;;;;;1.30;0.85;;;10.90;99.90;;;;;;5073004;28;20032;-74
2023/10/27 07:05:14;;;;;;;1.17;0.85;;;10.90;99.90;;;;;;5063012;28;20028;-73
2023/10/27 07:07:40;;;;;;;6.20;0.77;;;11.00;99.90;;;;;;5060316;28;20021;-74
2023/10/27 07:10:06;;;;;;;5.63;1.70;;;11.00;99.90;;;;;;5058860;28;20473;-75
2023/10/27 07:12:32;;;;;;;0.65;0.57;;;11.00;99.90;;;;;;5066392;28;20147;-74
2023/10/27 07:14:58;;;;;;;0.40;0.40;;;11.00;99.90;;;;;;5069302;28;20043;-74
2023/10/27 07:17:24;;;;;;;2.28;0.70;;;11.00;99.90;;;;;;5046020;28;20509;-75
2023/10/27 07:19:50;;;;;;;1.52;0.95;;;11.10;99.90;;;;;;5069934;28;20041;-74
2023/10/27 07:22:17;;;;;;;5.95;0.52;;;11.10;99.90;;;;;;5072812;28;20419;-73
2023/10/27 07:24:43;;;;;;;0.88;0.80;;;11.10;99.90;;;;;;5066926;28;20056;-74
2023/10/27 07:27:09;;;;;;;0.40;0.35;;;11.10;99.90;;;;;;5068436;28;20051;-75
2023/10/27 07:29:35;;;;;;;0.65;0.43;;;11.10;99.90;;;;;;5068838;28;20579;-76
2023/10/27 07:32:00;;;;;;;1.65;0.55;;;11.20;99.90;;;;;;5071322;28;20021;-74
2023/10/27 07:34:26;;;;;;;0.28;0.22;;;11.10;99.90;;;;;;5054656;28;20543;-74
2023/10/27 07:36:53;;;;;;;0.60;0.60;;;11.20;99.90;;;;;;5040777;28;20029;-74
2023/10/27 07:39:19;;;;;;;0.55;0.40;;;11.20;99.90;;;;;;5036524;28;20119;-74
2023/10/27 07:41:45;;;;;;;0.47;0.40;;;11.20;99.90;;;;;;5068884;28;20523;-74
2023/10/27 07:44:10;;;;;;;2.08;0.68;;;11.20;99.90;;;;;;5080514;28;20025;-75
2023/10/27 07:46:37;;;;;;;4.07;0.70;;;11.20;99.90;;;;;;5062952;28;20043;-72
2023/10/27 07:49:03;;;;;;;0.60;0.43;;;11.20;99.90;;;;;;5071990;28;20024;-71
2023/10/27 07:51:29;;;;;;;1.25;0.57;;;11.20;99.90;;;;;;5066949;28;20020;-70
2023/10/27 07:53:55;;;;;;;1.05;0.30;;;11.20;99.90;;;;;;5065706;28;20429;-70
2023/10/27 07:56:21;;;;;;;0.63;0.43;;;11.20;99.90;;;;;;5051869;28;20029;-71
2023/10/27 07:58:47;;;;;;;2.85;0.40;;;11.30;99.90;;;;;;5062138;28;20025;-71
2023/10/27 08:01:13;;;;;;;0.47;0.25;;;11.30;99.90;;;;;;5085271;28;20503;-71
2023/10/27 08:03:39;;;;;;;2.10;0.20;;;11.30;99.90;;;;;;5037247;28;20089;-71
2023/10/27 08:06:08;;;;;;;0.57;0.25;;;11.40;99.90;;;;;;5053188;28;20083;-70
2023/10/27 08:08:37;;;;;;;0.10;0.00;;;11.40;99.90;;;;;;5068440;28;20325;-71
2023/10/27 08:11:04;;;;;;;0.10;0.10;;;11.50;99.90;;;;;;5054806;28;20017;-72
2023/10/27 08:13:32;;;;;;;0.20;0.20;;;11.50;99.90;;;;;;5024537;28;20037;-72
2023/10/27 08:16:02;;;;;;;0.63;0.32;;;11.60;99.90;;;;;;5023558;28;20033;-71
2023/10/27 08:18:28;;;;;;;1.70;0.57;;;11.60;99.90;;;;;;5039396;28;20033;-70
2023/10/27 08:20:56;;;;;;;0.47;0.40;;;11.80;99.90;;;;;;5048337;28;20103;-70
2023/10/27 08:23:22;;;;;;;1.50;0.50;;;11.90;99.90;;;;;;5050197;28;20033;-71
2023/10/27 08:25:52;;;;;;;0.10;0.08;;;12.00;99.90;;;;;;5036965;28;20024;-70
2023/10/27 08:28:19;;;;;;;0.75;0.57;;;12.10;99.90;;;;;;5053574;28;20036;-70
2023/10/27 08:30:45;;;;;;;0.20;0.20;;;12.20;99.90;;;;;;5063916;28;20596;-71
2023/10/27 08:33:11;;;;;;;0.00;0.00;;;12.20;99.90;;;;;;5050489;28;20032;-71
2023/10/27 08:35:37;;;;;;;0.05;0.05;;;12.30;99.90;;;;;;5051296;28;20025;-69
2023/10/27 08:38:03;;;;;;;0.47;0.30;;;12.30;99.90;;;;;;5056556;28;20017;-70
2023/10/27 08:40:29;;;;;;;0.20;0.10;;;12.30;99.90;;;;;;5065982;28;20040;-71
2023/10/27 08:42:56;;;;;;;1.65;0.60;;;12.30;99.90;;;;;;5069575;28;20158;-71
2023/10/27 08:45:23;;;;;;;3.38;0.30;;;12.30;99.90;;;;;;5066361;28;20032;-70
2023/10/27 08:47:50;;;;;;;0.10;0.10;;;12.30;99.90;;;;;;5034090;28;20104;-70
2023/10/27 08:50:16;;;;;;;0.20;0.10;;;12.30;99.90;;;;;;5049099;28;20091;-71
2023/10/27 08:52:48;;;;;;;0.65;0.20;;;12.30;99.90;;;;;;5062974;28;20044;-71
2023/10/27 08:55:14;;;;;;;0.00;0.00;;;12.30;99.90;;;;;;5061554;28;20021;-71
2023/10/27 08:57:40;;;;;;;0.10;0.10;;;12.30;99.90;;;;;;5039117;28;20032;-71
2023/10/27 09:00:07;;;;;;;0.60;0.38;;;12.30;99.90;;;;;;5060512;28;20135;-71
2023/10/27 09:02:35;;;;;;;0.47;0.10;;;12.30;99.90;;;;;;5069221;28;20056;-71
2023/10/27 09:05:09;;;;;;;0.10;0.10;;;12.30;99.90;;;;;;5067728;28;20082;-71
2023/10/27 09:07:36;;;;;;;0.20;0.20;;;12.30;99.90;;;;;;5045105;28;20024;-72
2023/10/27 09:10:04;;;;;;;0.20;0.20;;;12.40;99.90;;;;;;5062146;28;20419;-71
2023/10/27 09:12:31;;;;;;;0.20;0.20;;;12.40;99.90;;;;;;5060508;28;20064;-71
2023/10/27 09:15:08;;;;;;;0.10;0.10;;;12.40;99.90;;;;;;5039029;28;20053;-71
2023/10/27 09:17:54;;;;;;;0.20;0.20;;;12.40;99.90;;;;;;5052139;28;20342;-70
2023/10/27 09:20:21;;;;;;;0.10;0.10;;;12.40;99.90;;;;;;5052480;28;20089;-71
2023/10/27 09:23:04;;;;;;;0.10;0.10;;;12.40;99.90;;;;;;5050849;28;20028;-72
2023/10/27 09:25:34;;;;;;;0.00;0.00;;;12.50;99.90;;;;;;5052825;28;20076;-71
2023/10/27 09:28:05;;;;;;;0.90;0.30;;;12.50;99.90;;;;;;5059366;28;20025;-72
2023/10/27 09:30:42;;;;;;;0.45;0.17;;;12.50;99.90;;;;;;5062690;28;20535;-71
2023/10/27 09:33:26;;;;;;;0.50;0.50;;;12.50;99.90;;;;;;5073708;28;20066;-71
2023/10/27 09:35:53;;;;;;;0.03;0.03;;;12.50;99.90;;;;;;5046459;28;20432;-69
2023/10/27 09:38:22;;;;;;;2.20;0.93;;;12.50;99.90;;;;;;5060816;28;20091;-70
2023/10/27 09:40:48;;;;;;;0.57;0.30;;;12.50;99.90;;;;;;5057529;28;20426;-70
2023/10/27 09:43:23;;;;;;;1.38;0.60;;;12.60;99.90;;;;;;5059232;28;20028;-73
2023/10/27 09:45:53;;;;;;;0.38;0.20;;;12.70;99.90;;;;;;5051234;28;20032;-73
2023/10/27 09:48:27;;;;;;;0.30;0.10;;;12.80;99.90;;;;;;5072901;28;20446;-72
2023/10/27 09:51:10;;;;;;;0.30;0.30;;;12.80;99.90;;;;;;5062299;28;20020;-73
2023/10/27 09:53:37;;;;;;;2.53;0.47;;;12.90;99.90;;;;;;5058262;28;20032;-70
2023/10/27 09:56:03;;;;;;;0.00;0.00;;;12.90;99.90;;;;;;5054204;28;20037;-70
2023/10/27 09:58:35;;;;;;;0.22;0.10;;;13.10;99.90;;;;;;5057387;28;20021;-70
2023/10/27 10:01:02;;;;;;;0.85;0.30;;;13.20;99.90;;;;;;5072675;28;20519;-70
2023/10/27 10:03:28;;;;;;;0.40;0.40;;;13.30;99.90;;;;;;5059138;28;20067;-70
2023/10/27 10:06:11;;;;;;;0.32;0.20;;;13.30;99.90;;;;;;5057047;28;20456;-70
2023/10/27 10:08:38;;;;;;;0.15;0.15;;;13.40;99.90;;;;;;5060483;28;20032;-70
2023/10/27 10:11:16;;;;;;;2.33;0.85;;;13.50;99.90;;;;;;5061898;28;20030;-69
2023/10/27 10:13:42;;;;;;;0.90;0.70;;;13.60;99.90;;;;;;5052861;28;20116;-70
2023/10/27 10:16:09;;;;;;;0.50;0.50;;;13.70;99.90;;;;;;5049734;28;20112;-70
2023/10/27 10:18:39;;;;;;;0.38;0.30;;;13.70;99.90;;;;;;5035151;28;20029;-69
2023/10/27 10:21:06;;;;;;;0.60;0.43;;;13.70;99.90;;;;;;5055079;28;20029;-70
2023/10/27 10:23:38;;;;;;;0.55;0.20;;;13.80;99.90;;;;;;5040652;28;20508;-70
2023/10/27 10:26:04;;;;;;;0.75;0.10;;;13.80;99.90;;;;;;5051721;28;20641;-71
2023/10/27 10:28:34;;;;;;;1.23;0.60;;;13.80;99.90;;;;;;5062060;28;20035;-70
2023/10/27 10:31:10;;;;;;;8.52;0.85;;;13.90;99.90;;;;;;5060448;28;20021;-71
2023/10/27 10:33:40;;;;;;;8.90;0.90;;;13.80;99.90;;;;;;5053883;28;20052;-69
2023/10/27 10:36:14;;;;;;;0.87;0.53;;;13.90;99.90;;;;;;5061478;28;20116;-70
2023/10/27 10:38:55;;;;;;;0.20;0.20;;;13.80;99.90;;;;;;5073615;28;20060;-70
2023/10/27 10:41:53;;;;;;;0.35;0.35;;;13.90;99.90;;;;;;5067588;28;20051;-69
2023/10/27 10:44:19;;;;;;;2.13;0.40;;;13.90;99.90;;;;;;5066955;28;20039;-69
2023/10/27 10:46:45;;;;;;;0.30;0.20;;;14.00;99.90;;;;;;5072376;28;20029;-69
2023/10/27 10:49:23;;;;;;;2.47;0.43;;;14.00;99.90;;;;;;5063505;28;20035;-69
2023/10/27 10:51:57;;;;;;;0.43;0.20;;;14.00;99.90;;;;;;5051201;28;20028;-70
2023/10/27 10:54:31;;;;;;;0.20;0.20;;;14.00;99.90;;;;;;5060630;28;20026;-69
2023/10/27 10:57:03;;;;;;;1.00;0.40;;;13.90;99.90;;;;;;5065904;28;20048;-69
2023/10/27 10:59:28;;;;;;;;;;;13.90;99.90;;;;;;5052575;28;20036;-69
2023/10/27 11:01:58;;;;;;;0.10;0.10;;;13.90;99.90;;;;;;5066633;28;19908;-70
2023/10/27 11:04:33;;;;;;;0.20;0.20;;;13.90;99.90;;;;;;5058840;28;20038;-69
2023/10/27 11:07:03;;;;;;;0.63;0.30;;;13.90;99.90;;;;;;5063425;28;20028;-70
2023/10/27 11:09:32;;;;;;;0.30;0.20;;;14.00;99.90;;;;;;5048610;28;20025;-54
2023/10/27 11:12:00;;;;;;;1.35;0.22;;;14.20;99.90;;;;;;5060893;28;20068;-56
2023/10/27 11:14:26;;;;;;;0.43;0.32;;;14.30;99.90;;;;;;5044571;28;20033;-59
2023/10/27 11:17:04;;;;;;;1.05;0.60;;;14.40;99.90;;;;;;5072508;28;20542;-71
2023/10/27 11:19:29;;;;;;;0.10;0.10;;;14.50;99.90;;;;;;5061944;28;20370;-70
2023/10/27 11:21:55;;;;;;;2.15;1.42;;;14.60;99.90;;;;;;5071185;28;20020;-70
2023/10/27 11:24:23;;;;;;;3.10;1.33;;;14.90;99.90;;;;;;5062266;28;20040;-71
2023/10/27 11:26:49;;;;;;;0.20;0.10;;;14.90;99.90;;;;;;5069003;28;20582;-71
2023/10/27 11:29:15;;;;;;;4.03;0.47;;;14.90;99.90;;;;;;5067831;28;20384;-70
2023/10/27 11:31:42;;;;;;;0.70;0.43;;;15.30;99.90;;;;;;5065413;28;20020;-71
2023/10/27 11:34:09;;;;;;;0.40;0.30;;;15.70;99.90;;;;;;5046573;28;20421;-71
2023/10/27 11:36:42;;;;;;;8.50;0.50;;;16.00;99.90;;;;;;5064432;28;20389;-71
2023/10/27 11:39:22;;;;;;;0.20;0.20;;;16.10;99.90;;;;;;5060896;28;20060;-71
2023/10/27 11:42:00;;;;;;;5.68;0.75;;;16.10;99.90;;;;;;5047172;28;20033;-71
2023/10/27 11:44:36;;;;;;;1.08;0.40;;;16.20;99.90;;;;;;5049729;28;20038;-71
2023/10/27 11:47:02;;;;;;;0.98;0.22;;;15.80;99.90;;;;;;5058286;28;20040;-71
2023/10/27 11:49:28;;;;;;;9.35;0.77;;;15.40;99.90;;;;;;5055370;28;20037;-72
2023/10/27 11:51:56;;;;;;;3.88;0.47;;;15.20;99.90;;;;;;5054277;28;20017;-72
2023/10/27 11:54:24;;;;;;;0.75;0.32;;;15.10;99.90;;;;;;5061431;28;20035;-70
2023/10/27 11:56:50;;;;;;;1.90;0.20;;;15.10;99.90;;;;;;5062524;28;20024;-74
2023/10/27 11:59:24;;;;;;;0.95;0.82;;;14.80;99.90;;;;;;5068650;28;20487;-71
2023/10/27 12:01:51;;;;;;;3.28;0.93;;;14.60;99.90;;;;;;5041197;28;20032;-70
2023/10/27 12:04:17;;;;;;;0.20;0.20;;;14.30;99.90;;;;;;5048544;28;20110;-71
2023/10/27 12:06:43;;;;;;;0.57;0.05;;;14.20;99.90;;;;;;5056347;28;20544;-71
2023/10/27 12:09:11;;;;;;;0.95;0.25;;;14.10;99.90;;;;;;5060395;28;20033;-71
2023/10/27 12:11:37;;;;;;;0.95;0.30;;;14.10;99.90;;;;;;5049189;28;20083;-70
2023/10/27 12:14:03;;;;;;;4.28;0.75;;;14.10;99.90;;;;;;5066024;28;20021;-71
2023/10/27 12:16:29;;;;;;;1.38;0.50;;;14.20;99.90;;;;;;5066316;28;20024;-71
2023/10/27 12:18:56;;;;;;;0.70;0.50;;;14.20;99.90;;;;;;5058033;28;20035;-71
2023/10/27 12:21:26;;;;;;;1.00;0.52;;;14.10;99.90;;;;;;5066991;28;20111;-71
2023/10/27 12:23:53;;;;;;;1.58;0.22;;;14.10;99.90;;;;;;5062073;28;20036;-71
2023/10/27 12:26:20;;;;;;;0.10;0.10;;;14.00;99.90;;;;;;5053099;28;20098;-71
2023/10/27 12:28:47;;;;;;;0.35;0.32;;;13.70;99.90;;;;;;5069155;28;20472;-71
2023/10/27 12:31:13;;;;;;;0.90;0.43;;;13.60;99.90;;;;;;5057078;28;20380;-70
2023/10/27 12:33:40;;;;;;;0.00;0.00;;;13.50;99.90;;;;;;5055530;28;20410;-72
2023/10/27 12:36:11;;;;;;;0.45;0.30;;;13.50;99.90;;;;;;5060238;28;20040;-72
2023/10/27 12:38:41;;;;;;;0.50;0.30;;;13.70;99.90;;;;;;5036779;28;20051;-72
2023/10/27 12:41:07;;;;;;;0.20;0.15;;;13.90;99.90;;;;;;5055753;28;20037;-72
2023/10/27 12:43:33;;;;;;;0.52;0.30;;;13.90;99.90;;;;;;5060151;28;20036;-71
2023/10/27 12:46:04;;;;;;;1.00;0.45;;;14.00;99.90;;;;;;5052865;28;20043;-71
2023/10/27 12:48:31;;;;;;;2.92;0.35;;;14.00;99.90;;;;;;5054201;28;20036;-71